Time;durP1;ratioP1;P1;durP2;ratioP2;P2;SDS_P1;SDS_P2;PMS_P1;PMS_P2;Temp;Humidity;BMP_temperature;BMP_pressure;BME280_temperature;BME280_humidity;BME280_pressure;Samples;Min_cycle;Max_cycle;Signal;HPM_P1;HPM_P2
2022/12/02 00:00:28;;;;;;;9.93;2.60;;;22.60;55.60;;;;;;5053803;28;20195;-67
2022/12/02 00:02:57;;;;;;;14.13;2.57;;;22.50;55.80;;;;;;5052994;28;20223;-67
2022/12/02 00:05:34;;;;;;;11.63;2.60;;;22.90;55.10;;;;;;5051008;28;20275;-68
2022/12/02 00:08:18;;;;;;;11.10;2.20;;;23.10;55.10;;;;;;5051466;28;20267;-68
2022/12/02 00:10:46;;;;;;;11.23;2.10;;;23.00;54.20;;;;;;5053757;28;20742;-68
2022/12/02 00:13:13;;;;;;;7.53;2.60;;;23.20;53.60;;;;;;5048416;28;20549;-67
2022/12/02 00:15:46;;;;;;;9.70;2.60;;;23.10;54.50;;;;;;5053756;28;20212;-68
2022/12/02 00:18:15;;;;;;;9.10;2.00;;;23.00;53.50;;;;;;5052306;28;20203;-68
2022/12/02 00:20:44;;;;;;;11.07;2.13;;;23.00;54.60;;;;;;5054231;28;20192;-68
2022/12/02 00:23:12;;;;;;;8.93;2.13;;;22.90;54.90;;;;;;5050536;28;20211;-68
2022/12/02 00:25:40;;;;;;;11.80;2.53;;;23.00;54.40;;;;;;5053685;28;20191;-67
2022/12/02 00:28:07;;;;;;;8.50;2.20;;;23.10;54.00;;;;;;5048037;28;20214;-69
2022/12/02 00:30:35;;;;;;;9.93;2.63;;;23.20;54.50;;;;;;5053300;28;20237;-67
2022/12/02 00:33:02;;;;;;;9.07;4.13;;;23.00;54.50;;;;;;5050949;28;20542;-68
2022/12/02 00:35:30;;;;;;;9.53;3.90;;;23.30;54.80;;;;;;5053632;28;20241;-66
2022/12/02 00:37:57;;;;;;;16.57;2.43;;;23.80;54.20;;;;;;5052272;28;20190;-68
2022/12/02 00:40:24;;;;;;;8.20;3.70;;;23.30;53.90;;;;;;5050945;28;20570;-67
2022/12/02 00:42:52;;;;;;;10.43;3.37;;;23.60;53.60;;;;;;5047755;28;20683;-68
2022/12/02 00:48:05;;;;;;;11.97;4.63;;;24.00;52.90;;;;;;5051605;28;20259;-69
2022/12/02 00:50:33;;;;;;;22.40;14.10;;;23.40;53.30;;;;;;5049490;28;20184;-67
2022/12/02 00:53:00;;;;;;;10.43;2.47;;;23.10;54.20;;;;;;5050288;28;20187;-67
2022/12/02 00:55:27;;;;;;;5.30;2.17;;;22.90;54.20;;;;;;5044881;28;20181;-68
2022/12/02 00:57:55;;;;;;;13.27;2.10;;;23.20;54.90;;;;;;5050876;28;20742;-67
2022/12/02 01:00:22;;;;;;;7.83;1.87;;;23.30;54.80;;;;;;5046869;28;20188;-67
2022/12/02 01:02:49;;;;;;;7.90;1.73;;;23.70;52.90;;;;;;5046443;28;20266;-68
2022/12/02 01:05:17;;;;;;;8.67;2.07;;;24.10;52.30;;;;;;5047715;28;20336;-70
2022/12/02 01:07:44;;;;;;;7.67;1.90;;;24.70;50.70;;;;;;5050302;28;20598;-67
2022/12/02 01:10:11;;;;;;;7.57;2.20;;;24.90;50.80;;;;;;5047149;28;20195;-68
2022/12/02 01:12:39;;;;;;;5.53;1.40;;;24.70;50.10;;;;;;5052138;28;20274;-67
2022/12/02 01:15:07;;;;;;;8.17;2.10;;;24.00;51.40;;;;;;5049731;28;20612;-67
2022/12/02 01:17:34;;;;;;;6.47;1.87;;;23.50;53.50;;;;;;5047168;28;20180;-69
2022/12/02 01:20:01;;;;;;;8.27;1.93;;;23.60;52.60;;;;;;5046185;28;20180;-69
2022/12/02 01:22:29;;;;;;;10.47;2.20;;;23.50;53.40;;;;;;5050860;28;20179;-67
2022/12/02 01:24:56;;;;;;;5.93;1.80;;;22.90;54.90;;;;;;5048960;28;20209;-67
2022/12/02 01:27:23;;;;;;;5.27;1.60;;;23.30;54.10;;;;;;5050963;28;20183;-68
2022/12/02 01:29:51;;;;;;;5.63;2.10;;;24.00;51.50;;;;;;5045911;28;20211;-70
2022/12/02 01:32:19;;;;;;;5.87;2.03;;;24.00;52.00;;;;;;5034427;28;20689;-70
2022/12/02 01:34:47;;;;;;;9.30;2.30;;;23.90;52.40;;;;;;5045545;28;20180;-68
2022/12/02 01:37:14;;;;;;;14.13;2.50;;;23.60;52.10;;;;;;5037600;28;20177;-69
2022/12/02 01:39:42;;;;;;;8.83;2.30;;;23.30;53.30;;;;;;5034148;28;20639;-69
2022/12/02 01:42:10;;;;;;;7.93;1.70;;;23.20;53.50;;;;;;5034080;28;20176;-69
2022/12/02 01:44:38;;;;;;;8.77;2.17;;;23.10;55.00;;;;;;5036907;28;20228;-69
2022/12/02 01:47:06;;;;;;;8.40;2.13;;;23.10;55.60;;;;;;5031780;28;20213;-69
2022/12/02 01:49:33;;;;;;;6.93;1.80;;;23.20;52.90;;;;;;5033094;28;20218;-67
2022/12/02 01:52:01;;;;;;;6.90;2.60;;;23.10;52.50;;;;;;5033950;28;20206;-67
2022/12/02 01:54:29;;;;;;;8.07;1.80;;;23.20;53.60;;;;;;5033730;28;20253;-68
2022/12/02 01:56:56;;;;;;;7.80;2.30;;;23.40;53.90;;;;;;5033611;28;20214;-67
2022/12/02 01:59:24;;;;;;;7.93;2.40;;;23.30;54.80;;;;;;5044445;28;20179;-69
2022/12/02 02:01:51;;;;;;;8.53;2.03;;;23.20;55.70;;;;;;5041884;28;20177;-68
2022/12/02 02:04:19;;;;;;;10.13;2.60;;;23.60;54.10;;;;;;5033093;28;20273;-67
2022/12/02 02:06:47;;;;;;;8.37;2.00;;;23.70;54.00;;;;;;5033743;28;20175;-70
2022/12/02 02:09:15;;;;;;;7.40;1.73;;;23.80;52.00;;;;;;5033409;28;20188;-68
2022/12/02 02:11:43;;;;;;;6.03;1.87;;;23.90;50.70;;;;;;5033706;28;20175;-69
2022/12/02 02:14:12;;;;;;;5.10;1.90;;;24.60;50.20;;;;;;5033485;28;20570;-67
2022/12/02 02:16:40;;;;;;;7.27;2.40;;;24.40;51.30;;;;;;5033282;28;20553;-68
2022/12/02 02:19:12;;;;;;;7.43;1.90;;;24.10;52.30;;;;;;5033314;28;20179;-68
2022/12/02 02:21:46;;;;;;;6.37;2.00;;;23.90;51.70;;;;;;5033522;28;20542;-67
2022/12/02 02:24:13;;;;;;;7.37;2.23;;;24.60;51.30;;;;;;5033245;28;20217;-67
2022/12/02 02:26:41;;;;;;;16.80;10.60;;;24.30;51.90;;;;;;5033276;28;20231;-68
2022/12/02 02:29:08;;;;;;;24.07;5.43;;;24.30;52.90;;;;;;5042182;28;20543;-68
2022/12/02 02:31:36;;;;;;;10.17;2.30;;;23.70;52.00;;;;;;5035323;28;20275;-68
2022/12/02 02:34:03;;;;;;;8.80;1.87;;;23.80;52.00;;;;;;5032804;28;20177;-68
2022/12/02 02:36:31;;;;;;;7.97;2.53;;;23.90;53.10;;;;;;5033148;28;20181;-67
2022/12/02 02:38:58;;;;;;;8.57;2.20;;;23.50;55.40;;;;;;5033139;28;20172;-67
2022/12/02 02:41:27;;;;;;;8.90;2.63;;;23.30;56.50;;;;;;5032923;28;20568;-68
2022/12/02 02:43:55;;;;;;;5.43;2.07;;;24.00;54.70;;;;;;5032746;28;20219;-69
2022/12/02 02:46:23;;;;;;;7.67;2.10;;;24.00;53.30;;;;;;5032873;28;20176;-67
2022/12/02 02:48:50;;;;;;;5.07;1.60;;;23.60;54.70;;;;;;5032651;28;20236;-69
2022/12/02 02:51:18;;;;;;;11.97;3.00;;;23.30;56.20;;;;;;5032644;28;20175;-67
2022/12/02 02:53:46;;;;;;;8.23;2.47;;;22.70;57.70;;;;;;5041520;28;20706;-69
2022/12/02 02:56:13;;;;;;;10.07;2.57;;;22.60;58.20;;;;;;5052872;28;20172;-68
2022/12/02 02:58:41;;;;;;;6.13;1.90;;;23.10;57.40;;;;;;5050138;28;20188;-67
2022/12/02 03:01:18;;;;;;;7.00;1.97;;;23.80;53.50;;;;;;5037922;28;20184;-68
2022/12/02 03:03:50;;;;;;;7.87;2.23;;;23.70;53.70;;;;;;5032450;28;20199;-68
2022/12/02 03:06:18;;;;;;;6.83;2.53;;;23.40;55.70;;;;;;5032802;28;20638;-68
2022/12/02 03:08:48;;;;;;;10.13;2.00;;;23.10;55.70;;;;;;5032883;28;20177;-67
2022/12/02 03:11:15;;;;;;;8.47;1.97;;;23.30;55.00;;;;;;5032776;28;20172;-67
2022/12/02 03:13:45;;;;;;;12.40;2.43;;;23.40;54.80;;;;;;5032633;28;20650;-68
2022/12/02 03:16:15;;;;;;;5.70;2.27;;;23.30;55.10;;;;;;5043206;28;20509;-67
2022/12/02 03:18:44;;;;;;;6.33;2.30;;;23.00;54.50;;;;;;5052165;28;20634;-68
2022/12/02 03:21:13;;;;;;;6.33;2.07;;;23.00;54.50;;;;;;5033233;28;20204;-67
2022/12/02 03:23:41;;;;;;;5.80;1.83;;;22.90;54.10;;;;;;5032424;28;20291;-67
2022/12/02 03:26:08;;;;;;;13.33;2.20;;;23.10;53.70;;;;;;5032558;28;20271;-67
2022/12/02 03:28:36;;;;;;;6.97;2.53;;;23.80;53.20;;;;;;5036848;28;20215;-67
2022/12/02 03:31:04;;;;;;;7.50;2.03;;;24.20;51.80;;;;;;5046169;28;20310;-67
2022/12/02 03:33:32;;;;;;;7.40;1.60;;;23.80;50.30;;;;;;5032087;28;20188;-68
2022/12/02 03:36:00;;;;;;;7.20;1.70;;;23.90;49.50;;;;;;5032163;28;20191;-67
2022/12/02 03:38:28;;;;;;;5.67;1.70;;;23.50;51.30;;;;;;5032318;28;20204;-68
2022/12/02 03:40:55;;;;;;;6.13;2.20;;;23.40;51.30;;;;;;5034339;28;20234;-67
2022/12/02 03:43:23;;;;;;;7.60;2.10;;;23.50;51.50;;;;;;5036578;28;20258;-67
2022/12/02 03:45:50;;;;;;;3.97;1.50;;;23.80;51.40;;;;;;5043103;28;20175;-69
2022/12/02 03:48:20;;;;;;;8.50;1.60;;;24.00;50.10;;;;;;5050758;28;20238;-69
2022/12/02 03:50:50;;;;;;;5.67;1.67;;;23.80;49.50;;;;;;5043388;28;20555;-67
2022/12/02 03:53:18;;;;;;;8.23;1.80;;;24.00;50.90;;;;;;5031488;28;20180;-68
2022/12/02 03:55:45;;;;;;;6.30;2.13;;;24.80;48.80;;;;;;5043992;28;20172;-67
2022/12/02 03:58:15;;;;;;;6.20;1.63;;;25.30;47.70;;;;;;5034105;28;20200;-67
2022/12/02 04:00:43;;;;;;;6.47;1.87;;;25.50;46.90;;;;;;5046480;28;20188;-68
2022/12/02 04:03:10;;;;;;;7.80;1.80;;;26.40;44.30;;;;;;5043348;28;20227;-68
2022/12/02 04:05:38;;;;;;;11.87;1.77;;;27.30;43.00;;;;;;5041381;28;20250;-66
2022/12/02 04:08:05;;;;;;;4.80;1.50;;;27.30;40.60;;;;;;5039298;28;20243;-67
2022/12/02 04:10:32;;;;;;;6.97;1.80;;;27.90;39.40;;;;;;5047287;28;20198;-66
2022/12/02 04:13:01;;;;;;;4.20;1.40;;;27.60;41.10;;;;;;5040376;28;20707;-66
2022/12/02 04:15:28;;;;;;;5.03;1.60;;;27.20;41.50;;;;;;5035340;28;20295;-68
2022/12/02 04:17:56;;;;;;;17.03;2.00;;;27.30;41.10;;;;;;5039528;28;20195;-67
2022/12/02 04:20:23;;;;;;;6.80;1.67;;;28.00;39.30;;;;;;5039679;28;20185;-67
2022/12/02 04:22:51;;;;;;;5.63;1.63;;;27.80;38.80;;;;;;5036618;28;20188;-69
2022/12/02 04:25:18;;;;;;;6.87;1.67;;;27.30;40.30;;;;;;5035773;28;20181;-68
2022/12/02 04:27:45;;;;;;;7.47;1.73;;;26.90;41.90;;;;;;5039037;28;20207;-67
2022/12/02 04:30:13;;;;;;;5.90;1.60;;;27.30;40.20;;;;;;5052414;28;20184;-67
2022/12/02 04:32:58;;;;;;;4.10;1.47;;;27.60;40.00;;;;;;5052480;28;20184;-71
2022/12/02 04:35:30;;;;;;;4.30;1.40;;;28.00;38.90;;;;;;5040326;28;20188;-72
2022/12/02 04:38:00;;;;;;;9.30;2.00;;;26.90;40.80;;;;;;5039069;28;20632;-76
2022/12/02 04:40:39;;;;;;;6.77;1.57;;;27.00;41.50;;;;;;5040794;28;20195;-74
2022/12/02 04:43:20;;;;;;;4.13;1.20;;;28.20;38.60;;;;;;5055185;28;20204;-74
2022/12/02 04:45:47;;;;;;;6.27;1.90;;;27.30;39.30;;;;;;5036889;28;20188;-68
2022/12/02 04:48:40;;;;;;;6.13;1.70;;;26.70;41.10;;;;;;5034655;28;20282;-73
2022/12/02 04:51:37;;;;;;;5.00;1.87;;;26.50;42.80;;;;;;5051653;28;20592;-74
2022/12/02 04:54:07;;;;;;;5.60;1.60;;;26.00;43.60;;;;;;5039563;28;20609;-73
2022/12/02 04:56:41;;;;;;;4.73;1.57;;;26.60;42.60;;;;;;5066405;28;20531;-71
2022/12/02 04:59:08;;;;;;;5.30;1.50;;;27.30;41.60;;;;;;5046207;28;20183;-68
2022/12/02 05:01:35;;;;;;;5.77;1.80;;;28.30;39.40;;;;;;5054938;28;20647;-66
2022/12/02 05:04:03;;;;;;;5.53;1.80;;;28.80;37.70;;;;;;5050852;28;20615;-67
2022/12/02 05:06:30;;;;;;;5.30;1.50;;;28.80;37.80;;;;;;5050909;28;20172;-69
2022/12/02 05:08:57;;;;;;;5.77;1.50;;;27.60;39.90;;;;;;5037137;28;20180;-68
2022/12/02 05:11:25;;;;;;;6.07;1.70;;;26.80;41.50;;;;;;5038962;28;20260;-68
2022/12/02 05:13:55;;;;;;;4.90;1.60;;;26.70;41.50;;;;;;5054409;28;20211;-66
2022/12/02 05:16:22;;;;;;;5.63;1.73;;;26.40;41.70;;;;;;5041795;28;20192;-66
2022/12/02 05:18:50;;;;;;;7.57;1.50;;;27.30;40.10;;;;;;5050576;28;20183;-70
2022/12/02 05:21:17;;;;;;;7.93;1.90;;;27.10;40.30;;;;;;5042723;28;20233;-67
2022/12/02 05:23:45;;;;;;;6.27;2.10;;;27.10;40.50;;;;;;5034999;28;20299;-67
2022/12/02 05:26:12;;;;;;;6.67;1.70;;;26.80;41.00;;;;;;5034491;28;20184;-66
2022/12/02 05:28:39;;;;;;;9.07;2.00;;;27.60;40.00;;;;;;5044699;28;20237;-66
2022/12/02 05:31:07;;;;;;;4.17;2.13;;;28.60;39.40;;;;;;5061163;28;20188;-66
2022/12/02 05:33:34;;;;;;;5.97;1.67;;;29.10;38.40;;;;;;5042301;28;20276;-66
2022/12/02 05:36:02;;;;;;;4.43;1.60;;;29.50;36.20;;;;;;5036555;28;20262;-68
2022/12/02 05:38:29;;;;;;;5.43;1.40;;;29.50;36.00;;;;;;5037824;28;20196;-66
2022/12/02 05:40:56;;;;;;;5.63;1.53;;;28.80;37.70;;;;;;5033732;28;20184;-66
2022/12/02 05:43:26;;;;;;;4.00;1.70;;;28.40;38.10;;;;;;5034029;28;20297;-67
2022/12/02 05:45:58;;;;;;;8.40;1.90;;;27.20;40.50;;;;;;5040932;28;20185;-66
2022/12/02 05:48:34;;;;;;;6.53;1.70;;;26.30;41.40;;;;;;5034839;28;20652;-66
2022/12/02 05:51:02;;;;;;;5.60;1.80;;;26.40;42.50;;;;;;5035616;28;20206;-66
2022/12/02 05:53:29;;;;;;;12.10;2.20;;;26.00;43.40;;;;;;5038092;28;20223;-67
2022/12/02 05:55:59;;;;;;;8.57;1.60;;;25.20;45.70;;;;;;5033550;28;20250;-65
2022/12/02 05:58:27;;;;;;;8.03;1.87;;;24.60;47.10;;;;;;5044127;28;20275;-65
2022/12/02 06:00:57;;;;;;;8.47;2.10;;;23.90;48.60;;;;;;5038416;28;20215;-66
2022/12/02 06:03:25;;;;;;;4.27;1.50;;;23.90;49.90;;;;;;5036357;28;20214;-67
2022/12/02 06:05:54;;;;;;;6.47;1.47;;;24.80;47.70;;;;;;5034869;28;20250;-68
2022/12/02 06:08:30;;;;;;;7.27;1.67;;;25.10;45.70;;;;;;5038592;28;20629;-69
2022/12/02 06:11:11;;;;;;;5.63;1.60;;;24.10;48.60;;;;;;5049749;28;20198;-68
2022/12/02 06:13:38;;;;;;;9.47;2.00;;;23.60;51.20;;;;;;5032585;28;20207;-67
2022/12/02 06:16:11;;;;;;;6.67;1.77;;;23.60;51.40;;;;;;5040687;28;20180;-69
2022/12/02 06:18:39;;;;;;;6.10;2.13;;;23.20;52.00;;;;;;5039340;28;20223;-68
2022/12/02 06:21:15;;;;;;;5.50;1.80;;;23.10;52.80;;;;;;5044715;28;20193;-67
2022/12/02 06:23:50;;;;;;;5.63;1.90;;;23.10;54.10;;;;;;5047861;28;20207;-67
2022/12/02 06:26:19;;;;;;;7.17;2.13;;;23.50;51.30;;;;;;5033880;28;20188;-68
2022/12/02 06:28:55;;;;;;;4.47;1.20;;;24.10;49.20;;;;;;5041169;28;20226;-67
2022/12/02 06:31:41;;;;;;;9.80;1.73;;;23.60;49.80;;;;;;5050902;28;20241;-69
2022/12/02 06:34:41;;;;;;;7.67;1.57;;;23.10;50.90;;;;;;5038037;28;20275;-67
2022/12/02 06:37:30;;;;;;;4.03;1.93;;;22.80;50.20;;;;;;5048684;28;20355;-68
2022/12/02 06:39:59;;;;;;;7.80;1.70;;;23.50;49.70;;;;;;5031460;28;20164;-67
2022/12/02 06:42:38;;;;;;;5.13;1.43;;;23.30;49.90;;;;;;5048405;28;20198;-68
2022/12/02 06:45:14;;;;;;;6.40;2.07;;;23.90;49.50;;;;;;5040384;28;20192;-68
2022/12/02 06:47:50;;;;;;;7.40;1.70;;;24.10;49.60;;;;;;5047816;28;20216;-67
2022/12/02 06:50:31;;;;;;;7.53;1.80;;;24.90;47.60;;;;;;5035633;28;20796;-68
2022/12/02 06:53:32;;;;;;;4.97;1.57;;;25.90;45.70;;;;;;5042509;28;20262;-68
2022/12/02 06:56:21;;;;;;;5.20;1.60;;;26.50;44.80;;;;;;5035385;28;20201;-69
2022/12/02 06:58:56;;;;;;;11.97;1.87;;;27.30;43.60;;;;;;5041520;28;20186;-69
2022/12/02 07:01:30;;;;;;;5.57;1.80;;;27.50;42.90;;;;;;5049389;28;20650;-68
2022/12/02 07:04:05;;;;;;;7.60;2.10;;;27.30;42.30;;;;;;5047653;28;20225;-69
2022/12/02 07:06:35;;;;;;;3.53;1.53;;;27.50;41.20;;;;;;5047774;28;20194;-71
2022/12/02 07:09:15;;;;;;;6.40;1.70;;;27.10;43.40;;;;;;5036708;28;20238;-68
2022/12/02 07:11:53;;;;;;;6.00;1.60;;;26.00;45.60;;;;;;5033072;28;20184;-68
2022/12/02 07:14:47;;;;;;;5.10;1.30;;;24.80;48.20;;;;;;5040615;28;20192;-69
2022/12/02 07:17:41;;;;;;;4.20;1.40;;;23.90;50.80;;;;;;5032308;28;20172;-70
2022/12/02 07:20:10;;;;;;;5.03;1.77;;;23.20;52.60;;;;;;5032674;28;20188;-69
2022/12/02 07:23:32;;;;;;;6.87;1.83;;;22.90;53.90;;;;;;5047524;28;20168;-69
2022/12/02 07:26:01;;;;;;;6.67;1.90;;;22.90;53.80;;;;;;5031956;28;20625;-70
2022/12/02 07:28:40;;;;;;;7.27;2.17;;;22.80;53.40;;;;;;5040449;28;20642;-70
2022/12/02 07:31:19;;;;;;;10.57;2.13;;;22.70;53.80;;;;;;5032430;28;20247;-70
2022/12/02 07:33:46;;;;;;;6.30;2.40;;;22.60;54.80;;;;;;5053878;28;20192;-69
2022/12/02 07:36:14;;;;;;;5.33;1.80;;;22.80;55.10;;;;;;5045143;28;20173;-70
2022/12/02 07:38:41;;;;;;;7.03;2.53;;;22.90;54.40;;;;;;5043888;28;20196;-69
2022/12/02 07:41:09;;;;;;;11.57;1.93;;;22.40;55.60;;;;;;5037316;28;20184;-69
2022/12/02 07:43:36;;;;;;;9.07;2.10;;;22.20;56.10;;;;;;5034066;28;20211;-69
2022/12/02 07:46:04;;;;;;;6.40;2.20;;;21.80;57.40;;;;;;5043914;28;20176;-69
2022/12/02 07:48:31;;;;;;;9.20;2.40;;;21.80;58.50;;;;;;5044299;28;20220;-69
2022/12/02 07:50:59;;;;;;;9.10;2.23;;;21.70;59.10;;;;;;5035745;28;20259;-67
2022/12/02 07:53:26;;;;;;;6.47;2.00;;;21.30;59.40;;;;;;5040666;28;20247;-68
2022/12/02 07:55:54;;;;;;;6.00;1.90;;;21.30;59.40;;;;;;5051435;28;20218;-69
2022/12/02 07:58:22;;;;;;;5.30;2.00;;;21.30;59.30;;;;;;5048194;28;20176;-69
2022/12/02 08:00:49;;;;;;;10.13;2.63;;;21.40;60.80;;;;;;5049128;28;20185;-70
2022/12/02 08:03:16;;;;;;;9.70;1.83;;;21.30;65.80;;;;;;5055198;28;20231;-70
2022/12/02 08:05:44;;;;;;;9.40;1.97;;;21.00;68.00;;;;;;5035784;28;20184;-69
2022/12/02 08:08:11;;;;;;;7.93;2.30;;;20.80;69.20;;;;;;5041918;28;20176;-69
2022/12/02 08:10:38;;;;;;;6.13;1.87;;;20.60;70.40;;;;;;5042267;28;20180;-68
2022/12/02 08:13:06;;;;;;;7.97;2.03;;;20.40;71.30;;;;;;5056549;28;20558;-68
2022/12/02 08:15:33;;;;;;;10.33;2.27;;;20.30;71.00;;;;;;5047788;28;20184;-70
2022/12/02 08:18:00;;;;;;;6.23;2.40;;;20.30;71.40;;;;;;5054055;28;20188;-71
2022/12/02 08:20:29;;;;;;;6.10;2.10;;;20.20;70.70;;;;;;5048081;28;20237;-70
2022/12/02 08:22:56;;;;;;;8.57;2.13;;;20.00;70.70;;;;;;5040192;28;20188;-70
2022/12/02 08:25:24;;;;;;;8.83;2.27;;;20.00;70.80;;;;;;5051665;28;20194;-70
2022/12/02 08:27:51;;;;;;;5.60;2.03;;;20.10;70.40;;;;;;5049063;28;20708;-70
2022/12/02 08:30:18;;;;;;;6.07;2.27;;;20.10;70.20;;;;;;5054327;28;20212;-68
2022/12/02 08:32:46;;;;;;;6.40;2.37;;;20.30;69.60;;;;;;5039373;28;20177;-69
2022/12/02 08:35:13;;;;;;;7.17;2.50;;;20.10;69.70;;;;;;5034975;28;20184;-69
2022/12/02 08:37:41;;;;;;;5.27;1.93;;;20.00;70.20;;;;;;5034710;28;20180;-69
2022/12/02 08:40:09;;;;;;;6.23;2.43;;;20.10;70.20;;;;;;5038380;28;20176;-68
2022/12/02 08:42:36;;;;;;;7.53;2.30;;;20.00;70.50;;;;;;5041848;28;20183;-70
2022/12/02 08:45:04;;;;;;;8.83;2.07;;;19.90;70.90;;;;;;5046552;28;20235;-69
2022/12/02 08:47:31;;;;;;;6.37;1.70;;;19.80;71.40;;;;;;5046170;28;20216;-68
2022/12/02 08:49:59;;;;;;;4.37;2.10;;;19.70;72.00;;;;;;5043577;28;20187;-68
2022/12/02 08:52:26;;;;;;;6.53;2.00;;;19.60;72.50;;;;;;5049883;28;20648;-68
2022/12/02 08:54:55;;;;;;;8.77;2.27;;;19.60;72.50;;;;;;5051438;28;20176;-68
2022/12/02 08:57:22;;;;;;;7.00;1.87;;;19.60;73.00;;;;;;5051582;28;20184;-68
2022/12/02 08:59:50;;;;;;;5.07;1.90;;;19.50;73.10;;;;;;5049454;28;20184;-68
2022/12/02 09:02:17;;;;;;;7.17;2.13;;;19.50;73.20;;;;;;5054007;28;20180;-68
2022/12/02 09:04:44;;;;;;;6.53;2.40;;;19.50;73.50;;;;;;5053171;28;20231;-69
2022/12/02 09:07:12;;;;;;;5.50;2.30;;;19.40;73.40;;;;;;5048946;28;20219;-69
2022/12/02 09:09:39;;;;;;;3.97;1.80;;;19.30;73.40;;;;;;5051159;28;20184;-69
2022/12/02 09:12:07;;;;;;;9.50;1.87;;;19.40;73.50;;;;;;5051141;28;20267;-68
2022/12/02 09:14:34;;;;;;;7.90;2.50;;;19.50;73.80;;;;;;5048414;28;20184;-70
2022/12/02 09:17:01;;;;;;;8.10;2.63;;;19.50;73.50;;;;;;5050253;28;20191;-67
2022/12/02 09:19:29;;;;;;;4.80;2.20;;;19.40;73.90;;;;;;5053925;28;20383;-67
2022/12/02 09:21:59;;;;;;;5.43;2.07;;;19.40;74.10;;;;;;5046560;28;20184;-68
2022/12/02 09:24:26;;;;;;;11.50;2.33;;;19.40;74.00;;;;;;5046419;28;20217;-67
2022/12/02 09:26:54;;;;;;;7.30;2.10;;;19.40;74.00;;;;;;5047706;28;20267;-68
2022/12/02 09:29:21;;;;;;;9.73;2.67;;;19.40;73.80;;;;;;5051803;27;20188;-68
2022/12/02 09:31:48;;;;;;;6.57;2.57;;;19.40;73.60;;;;;;5049288;28;20184;-67
2022/12/02 09:34:16;;;;;;;8.30;2.10;;;19.30;73.60;;;;;;5051970;28;20662;-67
2022/12/02 09:36:43;;;;;;;10.13;2.00;;;19.30;73.40;;;;;;5046688;28;20184;-67
2022/12/02 09:39:10;;;;;;;11.73;2.40;;;19.30;73.00;;;;;;5050631;28;20314;-68
2022/12/02 09:41:38;;;;;;;12.70;2.70;;;19.30;73.20;;;;;;5052806;28;20272;-68
2022/12/02 09:44:06;;;;;;;5.73;2.13;;;19.30;72.90;;;;;;5053154;28;20686;-68
2022/12/02 09:46:33;;;;;;;5.17;2.23;;;19.30;72.90;;;;;;5047246;28;20246;-66
2022/12/02 09:49:01;;;;;;;6.17;1.83;;;19.20;72.70;;;;;;5041289;28;20290;-67
2022/12/02 09:51:29;;;;;;;3.60;1.90;;;19.20;72.20;;;;;;5041424;28;20176;-67
2022/12/02 09:53:57;;;;;;;7.13;2.43;;;19.20;72.40;;;;;;5044375;28;20589;-69
2022/12/02 09:56:25;;;;;;;4.53;2.10;;;19.10;71.90;;;;;;5041186;28;20200;-70
2022/12/02 09:58:55;;;;;;;7.17;2.10;;;19.20;72.30;;;;;;5051059;28;20226;-66
2022/12/02 10:01:25;;;;;;;9.43;2.23;;;19.20;71.90;;;;;;5045880;28;20190;-70
2022/12/02 10:03:53;;;;;;;8.33;2.00;;;19.10;71.80;;;;;;5046275;28;20294;-69
2022/12/02 10:06:26;;;;;;;8.20;2.03;;;19.00;71.60;;;;;;5041461;28;20685;-69
2022/12/02 10:08:56;;;;;;;7.13;2.30;;;19.00;71.40;;;;;;5046107;28;20184;-70
2022/12/02 10:11:26;;;;;;;6.67;2.60;;;19.00;71.30;;;;;;5040214;28;20181;-69
2022/12/02 10:13:56;;;;;;;9.90;2.70;;;19.00;71.20;;;;;;5048501;28;20168;-70
2022/12/02 10:16:25;;;;;;;6.10;2.20;;;19.00;71.20;;;;;;5049951;28;20183;-69
2022/12/02 10:19:03;;;;;;;5.83;2.10;;;19.00;71.10;;;;;;5048628;28;20634;-69
2022/12/02 10:21:30;;;;;;;5.67;2.27;;;19.00;71.30;;;;;;5050410;28;20275;-70
2022/12/02 10:24:04;;;;;;;8.70;2.20;;;19.00;71.50;;;;;;5051377;28;20295;-69
2022/12/02 10:26:50;;;;;;;4.47;1.90;;;18.90;71.30;;;;;;5052285;28;20176;-67
2022/12/02 10:29:30;;;;;;;8.57;2.53;;;18.90;71.50;;;;;;5052724;28;20191;-69
2022/12/02 10:32:20;;;;;;;11.37;2.80;;;18.80;72.00;;;;;;5043251;28;20574;-69
2022/12/02 10:35:04;;;;;;;6.47;2.80;;;18.80;72.40;;;;;;5044066;28;20254;-69
2022/12/02 10:37:33;;;;;;;9.73;2.63;;;18.80;72.20;;;;;;5042224;28;20187;-67
2022/12/02 10:40:30;;;;;;;9.87;2.60;;;18.80;72.20;;;;;;5051785;28;20196;-67
2022/12/02 10:43:11;;;;;;;9.73;2.87;;;18.70;72.70;;;;;;5038161;28;20291;-68
2022/12/02 10:45:38;;;;;;;8.83;2.23;;;18.60;72.70;;;;;;5044954;28;20188;-70
2022/12/02 10:48:17;;;;;;;5.07;2.30;;;18.60;73.10;;;;;;5050824;28;20261;-69
2022/12/02 10:50:45;;;;;;;6.87;2.30;;;18.50;73.10;;;;;;5048945;28;20188;-68
2022/12/02 10:53:16;;;;;;;12.47;2.97;;;18.50;73.40;;;;;;5048816;28;20188;-68
2022/12/02 10:55:45;;;;;;;8.93;2.50;;;18.50;73.30;;;;;;5051202;28;20183;-70
2022/12/02 10:58:17;;;;;;;6.07;2.30;;;18.50;73.80;;;;;;5050904;28;20233;-69
2022/12/02 11:00:44;;;;;;;8.07;2.60;;;18.50;74.10;;;;;;5043118;28;20176;-68
2022/12/02 11:03:12;;;;;;;8.07;2.63;;;18.50;74.20;;;;;;5048443;28;20207;-69
2022/12/02 11:05:40;;;;;;;6.20;2.53;;;18.50;74.40;;;;;;5043581;28;20223;-70
2022/12/02 11:08:16;;;;;;;8.90;3.00;;;18.40;75.00;;;;;;5043992;28;20180;-69
2022/12/02 11:10:46;;;;;;;7.80;2.67;;;18.40;75.30;;;;;;5043417;28;20241;-67
2022/12/02 11:13:13;;;;;;;10.00;2.93;;;18.50;75.60;;;;;;5048096;28;20192;-67
2022/12/02 11:15:49;;;;;;;14.10;3.13;;;18.40;75.40;;;;;;5047401;28;20219;-68
2022/12/02 11:18:26;;;;;;;8.43;2.47;;;18.50;75.80;;;;;;5041261;28;20647;-68
2022/12/02 11:21:05;;;;;;;11.07;2.70;;;18.40;76.00;;;;;;5047793;28;20611;-67
2022/12/02 11:23:34;;;;;;;10.60;2.57;;;18.40;76.20;;;;;;5049381;28;20223;-68
2022/12/02 11:26:02;;;;;;;9.57;2.90;;;18.40;76.60;;;;;;5049984;28;20230;-68
2022/12/02 11:28:29;;;;;;;11.83;3.40;;;18.40;76.50;;;;;;5049833;28;20184;-67
2022/12/02 11:31:17;;;;;;;10.03;2.90;;;18.30;76.80;;;;;;5049073;28;20180;-68
2022/12/02 11:33:47;;;;;;;12.40;3.10;;;18.30;77.10;;;;;;5049646;28;20233;-70
2022/12/02 11:36:25;;;;;;;9.33;2.57;;;18.40;77.30;;;;;;5050968;28;20222;-68
2022/12/02 11:38:52;;;;;;;9.07;2.47;;;18.30;77.30;;;;;;5047000;28;20226;-70
2022/12/02 11:41:22;;;;;;;7.93;2.40;;;18.30;77.50;;;;;;5048752;28;20194;-70
2022/12/02 11:43:55;;;;;;;15.23;3.33;;;18.30;77.40;;;;;;5049598;28;20549;-70
2022/12/02 11:46:40;;;;;;;11.00;2.97;;;18.30;77.80;;;;;;5045052;28;20526;-69
2022/12/02 11:49:29;;;;;;;10.10;2.83;;;18.30;77.90;;;;;;5040898;28;20307;-70
2022/12/02 11:52:15;;;;;;;8.80;2.63;;;18.30;78.00;;;;;;5050248;28;20187;-69
2022/12/02 11:54:51;;;;;;;9.50;2.63;;;18.30;78.10;;;;;;5047784;28;20634;-70
2022/12/02 11:57:27;;;;;;;9.07;3.23;;;18.30;78.20;;;;;;5049962;28;20259;-70
2022/12/02 11:59:55;;;;;;;8.30;2.53;;;18.30;78.10;;;;;;5051821;28;20171;-70
2022/12/02 12:02:24;;;;;;;11.37;2.77;;;18.30;78.10;;;;;;5050613;28;20290;-71
2022/12/02 12:05:06;;;;;;;8.90;2.90;;;18.30;77.90;;;;;;5038005;28;20216;-70
2022/12/02 12:07:48;;;;;;;7.57;2.93;;;18.20;78.00;;;;;;5042304;28;20198;-71
2022/12/02 12:10:38;;;;;;;6.37;2.47;;;18.20;78.30;;;;;;5041566;28;20586;-70
2022/12/02 12:13:25;;;;;;;13.07;2.87;;;18.10;78.60;;;;;;5040511;28;20184;-71
2022/12/02 12:16:02;;;;;;;10.50;2.73;;;18.10;78.80;;;;;;5045498;28;20268;-71
2022/12/02 12:18:44;;;;;;;12.33;2.50;;;18.10;79.20;;;;;;5053466;28;20195;-70
2022/12/02 12:21:14;;;;;;;13.30;3.03;;;18.10;78.90;;;;;;5049441;28;20195;-71
2022/12/02 12:23:44;;;;;;;13.47;3.27;;;18.00;79.10;;;;;;5046037;28;20261;-70
2022/12/02 12:26:32;;;;;;;10.80;3.10;;;18.00;79.40;;;;;;5050110;28;20568;-70
2022/12/02 12:29:04;;;;;;;11.70;3.00;;;18.00;79.90;;;;;;5049483;28;20330;-71
2022/12/02 12:31:31;;;;;;;10.90;2.90;;;17.90;80.00;;;;;;5049562;28;20217;-70
2022/12/02 12:33:59;;;;;;;7.67;2.57;;;18.00;80.30;;;;;;5053141;28;20186;-71
2022/12/02 12:36:26;;;;;;;7.23;2.60;;;17.90;80.50;;;;;;5048583;28;20198;-71
2022/12/02 12:38:53;;;;;;;10.77;2.63;;;17.90;80.40;;;;;;5051829;28;20195;-71
2022/12/02 12:41:21;;;;;;;9.70;2.50;;;17.80;80.80;;;;;;5054005;28;20639;-71
2022/12/02 12:43:49;;;;;;;8.67;2.57;;;17.80;81.10;;;;;;5051763;28;20220;-71
2022/12/02 12:46:16;;;;;;;9.67;2.50;;;17.80;81.00;;;;;;5051858;28;20195;-69
2022/12/02 12:48:44;;;;;;;9.83;2.80;;;17.80;80.90;;;;;;5053786;28;20310;-71
2022/12/02 12:51:11;;;;;;;7.97;2.47;;;17.80;81.10;;;;;;5053162;28;20191;-69
2022/12/02 12:53:38;;;;;;;10.17;2.70;;;17.70;81.10;;;;;;5049203;28;20673;-69
2022/12/02 12:56:06;;;;;;;11.87;2.70;;;17.70;81.40;;;;;;5050711;28;20643;-71
2022/12/02 12:58:33;;;;;;;10.20;2.97;;;17.70;81.30;;;;;;5051874;28;20270;-70
2022/12/02 13:01:01;;;;;;;5.07;2.30;;;17.70;81.40;;;;;;5049210;28;20184;-71
2022/12/02 13:03:28;;;;;;;13.53;2.90;;;17.60;81.40;;;;;;5051302;28;20207;-71
2022/12/02 13:05:55;;;;;;;7.43;2.80;;;17.50;81.50;;;;;;5050636;28;20663;-71